logo
Rechercher aéroport 
image banner adimage banner adimage banner ad
image banner ad

OPGD - Gwadar Int'l

Situé à Gwadar, Pakistan

ICAO - OPGD, IATA - GWD

Données fournies par Airmate  

Information générale

Coordonnées: N25°13'56" E62°19'39"
Élévation : 32 feet MSL.
 
Voir autres Aéroports à Balochistan

Données opérationnelles

Special qualification required
Heure actuelle UTC:
Heure actuelle locale:
Météo
TAF: TAF OPGD 281700Z 2818/2918 25010KT 5000 HZ NSC TEMPO 2900/2904 23007KT 1500 BR FEW020 BECMG 2904/0906 24010G20KT 6000 NSC
Voir NOTAMs / SUP AIP / TFR affectant cet aéroport [VIEW]
Fréquences de communication: [VIEW]

Pistes:

Identifiant RWYQFULongueur (ft)Largeur (ft)SurfaceLDA (ft)
0663°650375ASP
24243°650375ASP

Coordonnées de l'aéroport

Adresse: Gwadar Pakistan

Vue satellite de OPGD